Time;durP1;ratioP1;P1;durP2;ratioP2;P2;SDS_P1;SDS_P2;PMS_P1;PMS_P2;Temp;Humidity;BMP_temperature;BMP_pressure;BME280_temperature;BME280_humidity;BME280_pressure;Samples;Min_cycle;Max_cycle;Signal;HPM_P1;HPM_P2
2023/10/11 00:00:50;;;;;;;;;11.67;9.33;;;;;23.05;47.91;101042.91;6213715;22;47317;-81
2023/10/11 00:05:55;;;;;;;;;10.67;10.67;;;;;23.05;47.80;101051.03;6216583;22;45467;-80
2023/10/11 00:08:25;;;;;;;;;12.67;10.00;;;;;23.00;48.27;101051.13;6216780;22;45332;-81
2023/10/11 00:10:54;;;;;;;;;9.00;8.00;;;;;23.13;47.74;101043.53;6214490;22;46747;-81
2023/10/11 00:13:32;;;;;;;;;11.00;11.00;;;;;23.17;47.98;101061.50;6217538;22;45424;-80
2023/10/11 00:16:07;;;;;;;;;8.33;8.33;;;;;23.01;47.87;101057.47;6190876;22;45251;-81
2023/10/11 00:18:34;;;;;;;;;14.00;12.00;;;;;22.99;48.26;101054.81;6191585;22;45287;-80
2023/10/11 00:21:10;;;;;;;;;11.67;10.00;;;;;22.96;47.98;101054.88;6218221;22;45492;-80
2023/10/11 00:23:38;;;;;;;;;8.67;7.33;;;;;22.95;48.55;101054.00;6218616;22;45379;-81
2023/10/11 00:26:06;;;;;;;;;14.33;13.00;;;;;22.90;48.53;101045.13;6191809;22;45401;-81
2023/10/11 00:28:32;;;;;;;;;15.67;13.00;;;;;22.92;48.41;101054.09;6219749;22;45276;-81
2023/10/11 00:31:11;;;;;;;;;8.67;8.00;;;;;22.96;49.00;101058.47;6217691;22;45342;-81
2023/10/11 00:33:37;;;;;;;;;13.00;12.00;;;;;22.74;48.96;101043.84;6220765;22;45500;-81
2023/10/11 00:36:04;;;;;;;;;15.33;13.33;;;;;22.73;48.97;101042.06;6191668;22;45415;-80
2023/10/11 00:38:31;;;;;;;;;13.00;11.00;;;;;22.72;49.19;101045.72;6221719;22;45496;-81
2023/10/11 00:43:34;;;;;;;;;8.33;8.00;;;;;22.89;48.66;101050.63;6219470;22;45810;-81
2023/10/11 00:46:02;;;;;;;;;12.67;12.67;;;;;22.70;49.16;101047.56;6218319;22;45396;-80
2023/10/11 00:48:29;;;;;;;;;10.67;9.00;;;;;22.60;49.18;101051.50;6217589;22;44922;-81
2023/10/11 00:50:56;;;;;;;;;11.00;11.00;;;;;22.51;48.93;101042.72;6217484;22;46914;-80
2023/10/11 00:53:23;;;;;;;;;11.00;8.33;;;;;22.51;49.37;101037.31;6194012;22;45064;-80
2023/10/11 00:55:49;;;;;;;;;11.67;10.00;;;;;22.46;49.35;101032.97;6221469;22;45318;-80
2023/10/11 00:58:15;;;;;;;;;10.00;9.00;;;;;22.50;49.06;101032.84;6221023;22;44718;-80
2023/10/11 01:00:42;;;;;;;;;10.00;10.00;;;;;22.44;49.12;101030.31;6220435;22;45189;-81
2023/10/11 01:03:08;;;;;;;;;15.67;10.67;;;;;22.47;48.67;101034.75;6191965;22;45416;-80
2023/10/11 01:05:38;;;;;;;;;12.00;10.00;;;;;22.58;49.00;101027.16;6217233;22;45351;-81
2023/10/11 01:08:03;;;;;;;;;14.00;9.00;;;;;22.45;48.83;101018.53;6189173;22;44870;-80
2023/10/11 01:13:51;;;;;;;;;11.00;11.00;;;;;22.49;48.67;101014.78;6217093;22;44750;-80
2023/10/11 01:16:18;;;;;;;;;8.33;8.33;;;;;22.53;49.32;101013.75;6220025;22;45218;-81
2023/10/11 01:18:44;;;;;;;;;10.67;10.00;;;;;22.36;48.82;100999.88;6192743;22;45487;-80
2023/10/11 01:21:12;;;;;;;;;9.67;8.33;;;;;22.43;48.98;101005.97;6218059;22;45483;-81
2023/10/11 01:23:41;;;;;;;;;11.33;9.00;;;;;22.34;49.05;101005.31;6217302;22;45400;-80
2023/10/11 01:26:08;;;;;;;;;11.00;9.00;;;;;22.39;48.69;101010.59;6217955;22;45360;-80
2023/10/11 01:28:40;;;;;;;;;12.00;9.00;;;;;22.52;48.80;101001.16;6217896;22;45364;-81
2023/10/11 01:31:10;;;;;;;;;7.33;7.33;;;;;22.46;48.90;101006.78;6216993;22;45943;-81
2023/10/11 01:33:40;;;;;;;;;7.67;7.67;;;;;22.45;48.65;100996.84;6215950;22;45411;-80
2023/10/11 01:36:52;;;;;;;;;9.33;8.33;;;;;22.67;48.23;101007.03;6213043;22;46276;-80
2023/10/11 01:39:21;;;;;;;;;10.67;9.33;;;;;22.37;48.95;100997.06;6214163;22;44790;-79
2023/10/11 01:41:54;;;;;;;;;10.67;9.00;;;;;22.58;48.48;100983.78;6216461;22;45629;-80
2023/10/11 01:44:22;;;;;;;;;8.00;7.67;;;;;22.34;48.69;100974.63;6189333;22;45310;-80
2023/10/11 01:46:48;;;;;;;;;9.00;8.00;;;;;22.36;48.62;100984.47;6189767;22;45332;-81
2023/10/11 01:49:14;;;;;;;;;9.33;9.00;;;;;22.27;48.87;100962.19;6191139;22;45201;-80
2023/10/11 01:51:46;;;;;;;;;10.33;8.00;;;;;22.33;48.73;100968.31;6214866;22;47051;-80
2023/10/11 01:54:12;;;;;;;;;9.33;9.33;;;;;22.32;48.57;100971.09;6189628;22;45890;-80
2023/10/11 01:56:39;;;;;;;;;10.00;9.00;;;;;22.33;48.84;100975.56;6216384;22;45554;-81
2023/10/11 01:59:04;;;;;;;;;9.33;8.00;;;;;22.31;48.56;100970.19;6214484;22;45539;-80
2023/10/11 02:01:38;;;;;;;;;10.00;8.67;;;;;22.46;48.79;100973.34;6188458;22;46729;-81
2023/10/11 02:04:11;;;;;;;;;11.67;9.00;;;;;22.36;49.15;100970.94;6189285;22;45411;-81
2023/10/11 02:06:40;;;;;;;;;7.33;7.00;;;;;22.32;49.10;100965.66;6191779;22;45115;-81
2023/10/11 02:09:05;;;;;;;;;9.00;9.00;;;;;22.25;48.87;100956.81;6217480;22;45211;-81
2023/10/11 02:11:31;;;;;;;;;10.00;9.00;;;;;22.24;48.56;100951.44;6187887;22;47095;-81
2023/10/11 02:13:57;;;;;;;;;9.00;8.00;;;;;22.26;48.67;100955.00;6214077;22;45468;-81
2023/10/11 02:16:23;;;;;;;;;4.00;4.00;;;;;22.28;48.88;100966.66;6214032;22;45427;-80
2023/10/11 02:18:58;;;;;;;;;10.00;7.33;;;;;22.13;48.90;100949.91;6188781;22;45344;-80
2023/10/11 02:21:24;;;;;;;;;10.67;9.33;;;;;22.15;48.76;100937.22;6213450;22;46929;-80
2023/10/11 02:23:50;;;;;;;;;7.00;6.33;;;;;22.24;49.05;100957.78;6216395;22;45333;-80
2023/10/11 02:26:17;;;;;;;;;10.00;10.00;;;;;22.35;49.21;100943.88;6217085;22;44908;-80
2023/10/11 02:28:44;;;;;;;;;8.00;7.00;;;;;22.20;49.00;100955.16;6194147;22;44805;-79
2023/10/11 02:31:13;;;;;;;;;8.67;7.00;;;;;22.20;49.07;100950.63;6219173;22;45297;-80
2023/10/11 02:33:39;;;;;;;;;8.00;7.33;;;;;22.17;48.91;100948.00;6218142;22;45470;-80
2023/10/11 02:36:09;;;;;;;;;11.00;11.00;;;;;22.17;49.46;100950.72;6219216;22;45312;-80
2023/10/11 02:38:47;;;;;;;;;10.67;8.00;;;;;22.29;49.09;100946.78;6213944;22;45336;-80
2023/10/11 02:41:26;;;;;;;;;5.67;5.00;;;;;22.25;49.24;100947.81;6216522;22;45501;-80
2023/10/11 02:43:56;;;;;;;;;8.33;7.67;;;;;22.02;49.11;100949.38;6189108;22;45421;-80
2023/10/11 02:46:23;;;;;;;;;8.00;6.00;;;;;22.03;49.20;100958.38;6216050;22;45592;-80
2023/10/11 02:48:49;;;;;;;;;10.00;8.33;;;;;22.08;49.97;100959.16;6217423;22;45450;-80
2023/10/11 02:51:17;;;;;;;;;10.33;10.33;;;;;22.01;49.66;100955.72;6213071;22;46812;-80
2023/10/11 02:53:43;;;;;;;;;10.33;9.33;;;;;22.08;49.30;100962.72;6213304;22;45018;-81
2023/10/11 02:56:11;;;;;;;;;14.00;11.33;;;;;22.04;50.22;100966.47;6215825;22;45217;-81
2023/10/11 02:58:39;;;;;;;;;8.67;8.67;;;;;21.98;49.96;100966.66;6214018;22;45431;-80
2023/10/11 03:01:46;;;;;;;;;9.67;9.33;;;;;22.23;49.85;100960.47;6214439;22;47298;-80
2023/10/11 03:04:15;;;;;;;;;13.00;11.00;;;;;21.91;50.01;100956.91;6216227;22;45269;-81
2023/10/11 03:06:47;;;;;;;;;12.67;11.00;;;;;21.87;50.16;100958.81;6219651;22;45277;-81
2023/10/11 03:09:12;;;;;;;;;9.67;9.00;;;;;21.79;50.16;100955.44;6220034;22;45328;-80
2023/10/11 03:11:45;;;;;;;;;7.33;7.33;;;;;21.73;50.55;100956.53;6191315;22;47484;-80
2023/10/11 03:14:12;;;;;;;;;11.33;10.00;;;;;21.73;50.41;100958.34;6213002;22;45380;-81
2023/10/11 03:16:42;;;;;;;;;8.00;8.00;;;;;21.73;50.67;100951.13;6213941;22;45291;-80
2023/10/11 03:19:10;;;;;;;;;11.67;9.00;;;;;21.57;50.43;100938.94;6187742;22;45361;-80
2023/10/11 03:21:38;;;;;;;;;11.33;10.00;;;;;21.71;50.62;100941.25;6215122;22;45165;-80
2023/10/11 03:24:06;;;;;;;;;11.33;10.00;;;;;21.56;50.42;100946.19;6215507;22;45258;-81
2023/10/11 03:26:31;;;;;;;;;8.00;8.00;;;;;21.52;50.80;100946.31;6215873;22;45507;-80
2023/10/11 03:29:05;;;;;;;;;12.00;8.00;;;;;21.45;50.69;100923.97;6216798;22;45349;-81
2023/10/11 03:31:32;;;;;;;;;11.33;11.33;;;;;21.43;51.12;100946.56;6189721;22;46682;-80
2023/10/11 03:34:14;;;;;;;;;12.00;11.33;;;;;21.53;51.12;100935.47;6188839;22;45678;-80
2023/10/11 03:36:51;;;;;;;;;9.00;9.00;;;;;21.47;51.74;100932.94;6215491;22;45536;-81
2023/10/11 03:42:14;;;;;;;;;12.67;12.67;;;;;21.29;52.20;100918.06;6215541;22;45392;-81
2023/10/11 03:44:45;;;;;;;;;10.00;10.00;;;;;21.31;52.31;100927.00;6213555;22;45358;-80
2023/10/11 03:47:14;;;;;;;;;14.00;11.00;;;;;21.25;52.78;100926.28;6214732;22;45365;-80
2023/10/11 03:52:18;;;;;;;;;10.67;10.67;;;;;21.15;52.76;100928.38;6216039;22;45414;-80
2023/10/11 03:54:45;;;;;;;;;12.00;10.67;;;;;21.09;52.92;100918.59;6188606;22;45596;-80
2023/10/11 03:57:11;;;;;;;;;13.33;12.00;;;;;21.02;53.22;100913.38;6189054;22;45350;-80
2023/10/11 03:59:47;;;;;;;;;12.00;8.67;;;;;21.08;53.18;100934.84;6218130;22;45466;-80
2023/10/11 04:02:13;;;;;;;;;10.00;10.00;;;;;21.05;53.48;100934.94;6218576;22;45078;-80
2023/10/11 04:04:42;;;;;;;;;13.00;12.00;;;;;21.01;53.30;100935.94;6215122;22;45268;-80
2023/10/11 04:07:12;;;;;;;;;9.00;9.00;;;;;20.98;53.32;100928.78;6188862;22;45395;-80
2023/10/11 04:09:39;;;;;;;;;13.33;10.33;;;;;20.97;53.45;100927.03;6216224;22;45374;-80
2023/10/11 04:12:05;;;;;;;;;15.00;12.33;;;;;20.94;53.39;100925.25;6214430;22;47035;-80
2023/10/11 04:14:51;;;;;;;;;10.33;10.00;;;;;21.05;53.51;100918.72;6216641;22;45289;-80
2023/10/11 04:19:51;;;;;;;;;9.67;9.00;;;;;20.81;53.20;100910.31;6216471;22;45356;-80
2023/10/11 04:22:23;;;;;;;;;8.67;8.00;;;;;20.81;53.59;100918.41;6212420;22;47248;-80
2023/10/11 04:24:55;;;;;;;;;12.67;11.00;;;;;20.82;53.38;100917.47;6214609;22;45309;-80
2023/10/11 04:29:52;;;;;;;;;9.00;8.33;;;;;21.03;53.04;100916.06;6210728;22;45443;-80
2023/10/11 04:35:21;;;;;;;;;10.00;10.00;;;;;20.92;53.15;100927.13;6216170;22;45269;-80
2023/10/11 04:38:01;;;;;;;;;12.67;10.00;;;;;20.90;52.88;100931.69;6188710;22;45226;-80
2023/10/11 04:43:25;;;;;;;;;10.00;8.67;;;;;21.14;52.51;100926.56;6221677;22;44866;-80
2023/10/11 04:45:54;;;;;;;;;11.67;10.67;;;;;21.00;52.84;100937.75;6211946;22;45315;-81
2023/10/11 04:48:32;;;;;;;;;18.33;14.00;;;;;20.95;52.95;100929.75;6218297;22;45286;-79
2023/10/11 04:51:39;;;;;;;;;10.33;9.00;;;;;20.97;52.81;100944.13;6218468;22;45313;-80
2023/10/11 04:53:58;;;;;;;;;12.33;8.33;;;;;21.06;52.89;100951.09;6212201;22;46593;-79
2023/10/11 04:57:08;;;;;;;;;14.33;12.67;;;;;20.88;53.04;100943.47;6216597;22;45369;-80
2023/10/11 04:59:19;;;;;;;;;10.67;8.00;;;;;20.91;53.07;100948.81;6200046;22;45772;-80
2023/10/11 05:04:13;;;;;;;;;10.67;9.00;;;;;20.79;53.06;100950.00;6215185;22;46101;-79
2023/10/11 05:06:41;;;;;;;;;10.33;10.33;;;;;20.78;52.95;100953.63;6215405;22;45392;-80
2023/10/11 05:11:50;;;;;;;;;11.33;9.67;;;;;20.71;53.24;100933.09;6216733;22;44670;-80
2023/10/11 05:14:32;;;;;;;;;14.33;11.00;;;;;20.66;53.43;100937.72;6188783;22;47836;-80
2023/10/11 05:17:16;;;;;;;;;11.00;11.00;;;;;20.74;53.56;100941.09;6191548;22;45342;-79
2023/10/11 05:25:39;;;;;;;;;11.00;11.00;;;;;20.57;53.34;100939.69;6215195;22;46015;-80
2023/10/11 05:28:15;;;;;;;;;11.00;8.00;;;;;20.50;52.88;100932.66;6213916;22;45331;-80
2023/10/11 05:30:44;;;;;;;;;10.00;8.33;;;;;20.52;52.75;100941.63;6214504;22;45349;-80
2023/10/11 05:33:41;;;;;;;;;14.33;10.33;;;;;20.50;52.93;100938.06;6212306;22;44820;-80
2023/10/11 05:36:17;;;;;;;;;6.67;6.67;;;;;20.50;52.40;100943.47;6213508;22;45334;-80
2023/10/11 05:52:43;;;;;;;;;12.67;10.00;;;;;20.43;53.27;100957.16;6219497;22;44921;-80
2023/10/11 05:55:18;;;;;;;;;15.00;13.00;;;;;20.49;53.73;100955.19;6218412;22;45784;-81
2023/10/11 05:57:44;;;;;;;;;14.33;10.67;;;;;20.09;54.30;100934.47;6216458;22;46214;-81
2023/10/11 06:00:43;;;;;;;;;17.67;14.00;;;;;20.11;54.90;100920.97;6189457;22;45375;-81
2023/10/11 06:03:18;;;;;;;;;13.33;12.67;;;;;19.88;54.82;100921.47;6216648;22;44774;-80
2023/10/11 06:05:51;;;;;;;;;14.33;13.33;;;;;20.18;55.05;100965.81;6216640;22;45409;-80
2023/10/11 06:08:33;;;;;;;;;16.67;14.33;;;;;20.33;54.66;100986.19;6216201;22;45724;-81
2023/10/11 06:11:36;;;;;;;;;15.00;11.67;;;;;20.36;54.87;100992.41;6216574;22;45334;-81
2023/10/11 06:14:12;;;;;;;;;15.67;14.00;;;;;19.99;55.07;100962.59;6209969;22;45416;-81
2023/10/11 06:17:16;;;;;;;;;11.67;10.33;;;;;20.17;55.11;100951.41;6216318;22;45384;-81
2023/10/11 06:30:25;;;;;;;;;15.00;14.33;;;;;20.06;55.27;100950.78;6219682;22;45340;-83
2023/10/11 06:41:50;;;;;;;;;16.00;14.33;;;;;20.46;53.82;100974.19;6244813;22;45354;-82
2023/10/11 06:44:28;;;;;;;;;12.67;10.33;;;;;20.49;53.96;100949.78;6221215;22;45478;-82
2023/10/11 06:48:25;;;;;;;;;;;;;;;;;;;;;
2023/10/11 06:55:51;;;;;;;;;14.00;12.67;;;;;20.70;55.08;100982.66;6084409;23;45265;-82
2023/10/11 06:59:09;;;;;;;;;18.33;16.00;;;;;20.69;55.11;100984.47;6057557;23;47247;-83
2023/10/11 07:01:45;;;;;;;;;15.67;12.00;;;;;20.42;55.84;100964.38;6077566;23;44949;-82
2023/10/11 07:04:36;;;;;;;;;;;;;;;;;;;;;
2023/10/11 07:07:47;;;;;;;;;;;;;;;;;;;;;
2023/10/11 07:11:10;;;;;;;;;19.33;12.33;;;;;20.64;54.62;100959.34;6212563;22;78575;-84
2023/10/11 07:34:31;;;;;;;;;10.00;10.00;;;;;21.33;52.89;101006.31;6210001;22;44802;-80
2023/10/11 07:47:55;;;;;;;;;;;;;;;;;;;;;
2023/10/11 08:56:51;;;;;;;;;;;;;;;;;;;;;
2023/10/11 11:39:42;;;;;;;;;14.33;8.67;;;;;27.60;41.39;100897.09;6261637;22;45616;-81
2023/10/11 11:42:24;;;;;;;;;8.67;7.33;;;;;27.72;41.63;100874.56;6188469;22;44900;-85
2023/10/11 11:45:53;;;;;;;;;;;;;;;;;;;;;
2023/10/11 11:54:31;;;;;;;;;8.33;8.33;;;;;28.46;40.82;100868.53;6182831;22;45732;-82
2023/10/11 11:57:36;;;;;;;;;9.00;9.00;;;;;28.71;40.38;100875.31;6142024;23;44948;-83
2023/10/11 12:33:55;;;;;;;;;10.67;8.00;;;;;28.85;40.17;100834.31;6220997;22;45241;-83
2023/10/11 12:37:01;;;;;;;;;11.00;5.67;;;;;28.99;40.17;100829.84;6200312;22;44672;-81
2023/10/11 12:43:07;;;;;;;;;7.33;5.67;;;;;28.82;40.12;100796.16;6194844;22;45109;-82
2023/10/11 12:46:12;;;;;;;;;;;;;;;;;;;;;
2023/10/11 12:52:28;;;;;;;;;10.00;9.00;;;;;29.01;40.01;100806.00;6115246;23;44878;-83
2023/10/11 12:55:20;;;;;;;;;8.67;6.67;;;;;29.09;40.03;100798.19;6134844;23;45299;-83
2023/10/11 12:58:01;;;;;;;;;6.00;6.00;;;;;29.22;39.76;100799.19;6109247;23;45750;-82
2023/10/11 13:01:13;;;;;;;;;11.33;8.33;;;;;29.27;39.87;100797.06;6078046;23;45443;-82
2023/10/11 13:10:35;;;;;;;;;9.33;9.33;;;;;28.98;40.16;100779.66;6101305;23;45486;-81
2023/10/11 13:13:06;;;;;;;;;10.00;9.67;;;;;29.01;39.89;100775.88;6159943;23;44823;-81
2023/10/11 13:15:34;;;;;;;;;6.67;6.67;;;;;29.35;39.84;100795.66;6130761;23;44958;-82
2023/10/11 13:18:09;;;;;;;;;10.67;10.67;;;;;29.02;39.53;100763.94;6160244;23;45225;-82
2023/10/11 13:27:22;;;;;;;;;10.67;9.00;;;;;29.39;38.97;100784.44;6011950;23;44949;-81
2023/10/11 13:29:53;;;;;;;;;7.33;7.33;;;;;29.24;39.29;100778.06;6014498;23;46782;-81
2023/10/11 13:32:38;;;;;;;;;12.67;10.67;;;;;29.21;39.57;100761.84;6010291;23;44827;-81
2023/10/11 13:35:12;;;;;;;;;6.67;6.67;;;;;29.24;39.38;100769.84;6011258;23;44831;-80
2023/10/11 13:38:30;;;;;;;;;9.00;9.00;;;;;29.29;39.93;100767.72;5993346;23;45529;-80
2023/10/11 13:48:09;;;;;;;;;;;;;;;;;;;;;
2023/10/11 13:51:29;;;;;;;;;;;;;;;;;;;;;
2023/10/11 13:54:52;;;;;;;;;9.00;7.67;;;;;29.34;38.55;100728.19;5989296;23;74512;-82
2023/10/11 13:58:19;;;;;;;;;6.33;6.33;;;;;29.48;37.89;100750.06;5907318;24;44845;-82
2023/10/11 14:01:13;;;;;;;;;7.00;7.00;;;;;29.41;37.93;100743.22;5817298;24;44863;-81
2023/10/11 14:04:27;;;;;;;;;;;;;;;;;;;;;
2023/10/11 14:13:35;;;;;;;;;;;;;;;;;;;;;
2023/10/11 14:16:18;;;;;;;;;8.33;7.00;;;;;29.17;38.05;100730.16;5891111;24;65064;-82
2023/10/11 14:18:51;;;;;;;;;10.00;10.00;;;;;28.86;38.20;100721.09;5953080;23;45165;-78
2023/10/11 14:21:25;;;;;;;;;7.33;7.33;;;;;29.12;38.07;100732.28;5962598;23;45395;-81
2023/10/11 14:23:58;;;;;;;;;9.00;9.00;;;;;28.83;38.06;100691.19;5983811;23;44927;-81
2023/10/11 14:26:33;;;;;;;;;7.00;7.00;;;;;28.96;38.15;100715.03;5981496;23;45451;-82
2023/10/11 14:32:34;;;;;;;;;11.33;10.33;;;;;28.67;37.32;100710.41;5935260;23;45523;-80
2023/10/11 14:35:08;;;;;;;;;6.67;6.67;;;;;28.59;37.95;100698.19;6024976;23;45260;-79
2023/10/11 14:38:06;;;;;;;;;12.33;11.33;;;;;28.83;38.19;100693.03;6140499;23;44957;-79
2023/10/11 14:40:35;;;;;;;;;8.00;7.67;;;;;28.68;37.98;100700.34;6127822;23;46769;-80
2023/10/11 14:43:04;;;;;;;;;8.00;8.00;;;;;28.81;38.08;100716.91;6127146;23;45613;-81
2023/10/11 14:45:46;;;;;;;;;11.33;9.33;;;;;28.99;37.91;100699.31;6133602;23;45370;-82
2023/10/11 14:48:23;;;;;;;;;10.67;7.00;;;;;28.98;38.25;100724.03;6106882;23;44910;-82
2023/10/11 14:54:44;;;;;;;;;8.33;8.33;;;;;28.97;37.89;100727.78;6131650;23;44816;-80
2023/10/11 15:00:33;;;;;;;;;7.67;7.67;;;;;28.87;38.13;100711.91;6014248;23;45403;-82
2023/10/11 15:06:04;;;;;;;;;;;;;;;;;;;;;
2023/10/11 15:08:30;;;;;;;;;6.00;6.00;;;;;28.62;38.12;100717.13;6064724;23;67797;-82
2023/10/11 15:11:22;;;;;;;;;;;;;;;;;;;;;
2023/10/11 15:14:49;;;;;;;;;7.33;7.33;;;;;28.80;37.84;100724.22;6067943;23;75384;-79
2023/10/11 15:17:23;;;;;;;;;9.67;9.67;;;;;28.60;37.94;100689.00;5985179;23;45312;-81
2023/10/11 15:20:42;;;;;;;;;;;;;;;;;;;;;
2023/10/11 15:23:14;;;;;;;;;9.33;8.33;;;;;28.39;38.52;100689.31;6005728;23;65371;-80
2023/10/11 15:25:46;;;;;;;;;8.67;8.67;;;;;28.61;38.16;100690.78;5985249;23;46286;-83
2023/10/11 15:28:12;;;;;;;;;8.33;8.00;;;;;28.48;37.86;100691.50;5986861;23;45326;-80
2023/10/11 15:30:47;;;;;;;;;8.00;8.00;;;;;28.53;38.06;100714.00;6009770;23;44864;-83
2023/10/11 15:33:24;;;;;;;;;9.33;9.33;;;;;28.63;38.37;100691.56;5979346;23;44940;-82
2023/10/11 15:36:08;;;;;;;;;6.50;6.50;;;;;28.48;38.01;100676.91;5986846;23;47199;-83
2023/10/11 15:38:54;;;;;;;;;7.67;7.67;;;;;28.68;37.89;100711.28;6047532;23;45396;-82
2023/10/11 15:41:20;;;;;;;;;10.00;10.00;;;;;28.31;38.34;100681.56;6046298;23;44890;-82
2023/10/11 15:43:45;;;;;;;;;9.33;8.00;;;;;28.26;38.54;100667.31;6045355;23;45216;-83
2023/10/11 15:46:12;;;;;;;;;8.33;8.33;;;;;28.44;38.47;100665.31;6066590;23;45439;-82
2023/10/11 15:48:40;;;;;;;;;8.67;8.67;;;;;28.63;38.06;100708.84;6044459;23;45300;-81
2023/10/11 15:51:15;;;;;;;;;8.67;8.00;;;;;28.36;38.13;100684.06;6044654;23;45342;-82
2023/10/11 15:53:45;;;;;;;;;10.33;9.67;;;;;28.17;38.20;100683.41;6216389;22;45485;-81
2023/10/11 15:56:15;;;;;;;;;6.00;6.00;;;;;28.30;38.35;100689.91;6192267;22;45989;-82
2023/10/11 15:58:56;;;;;;;;;8.33;8.33;;;;;28.36;37.88;100711.41;6190865;22;45432;-82
2023/10/11 16:01:24;;;;;;;;;7.33;7.33;;;;;28.28;37.83;100705.53;6191424;22;44870;-82
2023/10/11 16:03:52;;;;;;;;;7.00;7.00;;;;;28.12;38.23;100711.91;6216756;22;45851;-83
2023/10/11 16:06:19;;;;;;;;;9.67;8.00;;;;;28.06;37.49;100693.13;6219354;22;47401;-83
2023/10/11 16:08:45;;;;;;;;;10.00;8.00;;;;;28.05;38.00;100702.28;6193614;22;45650;-83
2023/10/11 16:11:15;;;;;;;;;9.33;9.00;;;;;27.94;37.55;100674.72;6220902;22;45276;-83
2023/10/11 16:13:42;;;;;;;;;9.00;7.00;;;;;28.04;37.38;100700.53;6195901;22;45523;-83
2023/10/11 16:16:09;;;;;;;;;7.67;7.67;;;;;28.06;37.31;100709.53;6220250;22;46107;-82
2023/10/11 16:18:36;;;;;;;;;8.00;8.00;;;;;27.97;37.70;100703.72;6194354;22;45388;-82
2023/10/11 16:21:02;;;;;;;;;10.33;8.00;;;;;27.96;37.76;100704.72;6194870;22;44739;-82
2023/10/11 16:23:30;;;;;;;;;6.67;6.33;;;;;27.97;37.09;100704.59;6221636;22;45346;-84
2023/10/11 16:25:58;;;;;;;;;9.33;9.33;;;;;27.95;37.29;100709.28;6193473;22;46995;-83
2023/10/11 16:28:24;;;;;;;;;7.67;5.67;;;;;27.80;37.26;100700.09;6193825;22;45314;-81
2023/10/11 16:30:56;;;;;;;;;9.00;9.00;;;;;27.85;37.49;100708.91;6220766;22;45368;-82
2023/10/11 16:33:31;;;;;;;;;10.33;10.00;;;;;27.86;37.71;100712.53;6240359;22;44893;-82
2023/10/11 16:35:58;;;;;;;;;9.33;9.00;;;;;27.62;37.86;100706.66;6223148;22;46230;-82
2023/10/11 16:38:25;;;;;;;;;7.33;5.33;;;;;27.54;37.29;100712.56;6251265;22;45260;-83
2023/10/11 16:43:58;;;;;;;;;8.00;7.33;;;;;27.45;37.84;100697.56;6252121;22;45351;-83
2023/10/11 16:46:24;;;;;;;;;7.00;5.00;;;;;27.17;37.33;100706.41;6253461;22;45342;-83
2023/10/11 16:49:46;;;;;;;;;7.67;6.33;;;;;27.38;37.33;100701.63;6224065;22;45381;-82
2023/10/11 16:52:11;;;;;;;;;9.67;9.33;;;;;26.96;37.82;100694.81;6226386;22;45495;-83
2023/10/11 16:54:37;;;;;;;;;7.33;7.33;;;;;26.87;38.22;100696.22;6254535;22;45533;-82
2023/10/11 16:57:03;;;;;;;;;8.00;8.00;;;;;26.86;38.22;100694.44;6226655;22;46894;-82
2023/10/11 16:59:29;;;;;;;;;8.00;8.00;;;;;26.69;38.43;100697.22;6250882;22;45396;-82
2023/10/11 17:01:57;;;;;;;;;10.00;8.67;;;;;26.70;38.05;100685.31;6224265;22;45327;-83
2023/10/11 17:04:24;;;;;;;;;7.00;7.00;;;;;26.46;38.59;100693.84;6223274;22;45346;-82
2023/10/11 17:06:53;;;;;;;;;6.00;6.00;;;;;26.41;38.75;100689.59;6251858;22;45443;-82
2023/10/11 17:09:19;;;;;;;;;7.33;6.00;;;;;26.37;38.32;100691.59;6251069;22;45381;-82
2023/10/11 17:11:46;;;;;;;;;8.00;6.33;;;;;26.25;38.75;100695.84;6251036;22;45362;-82
2023/10/11 17:14:12;;;;;;;;;6.33;6.33;;;;;26.16;38.71;100693.59;6197338;22;45368;-83
2023/10/11 17:16:37;;;;;;;;;8.33;8.00;;;;;26.07;38.91;100696.78;6222353;22;48051;-82
2023/10/11 17:19:03;;;;;;;;;8.67;6.33;;;;;25.98;39.15;100700.00;6249807;22;45431;-82
2023/10/11 17:21:28;;;;;;;;;8.67;6.67;;;;;25.97;38.85;100703.69;6250750;22;45419;-82
2023/10/11 17:23:54;;;;;;;;;9.00;7.00;;;;;25.93;38.89;100711.13;6251413;22;45361;-82
2023/10/11 17:26:21;;;;;;;;;8.33;8.00;;;;;25.88;39.00;100710.44;6249107;22;45284;-82
2023/10/11 17:28:55;;;;;;;;;8.00;7.67;;;;;25.94;39.05;100702.88;6222342;22;45641;-82
2023/10/11 17:31:21;;;;;;;;;10.00;9.00;;;;;25.75;39.26;100711.06;6249342;22;45359;-83
2023/10/11 17:33:53;;;;;;;;;8.00;7.00;;;;;25.72;38.57;100713.94;6221611;22;45324;-83
2023/10/11 17:36:21;;;;;;;;;8.00;7.00;;;;;25.78;38.75;100701.84;6247618;22;45700;-82
2023/10/11 17:38:46;;;;;;;;;8.33;6.67;;;;;25.60;39.54;100706.38;6248754;22;45256;-82
2023/10/11 17:41:13;;;;;;;;;10.67;9.00;;;;;25.54;39.08;100703.94;6249925;22;45243;-83
2023/10/11 17:43:41;;;;;;;;;7.00;7.00;;;;;25.52;39.32;100698.56;6222934;22;45270;-82
2023/10/11 17:46:07;;;;;;;;;11.33;9.33;;;;;25.62;39.23;100720.78;6248114;22;45672;-82
2023/10/11 17:48:45;;;;;;;;;9.33;8.00;;;;;25.75;39.21;100724.69;6222617;22;45324;-82
2023/10/11 17:51:44;;;;;;;;;12.00;8.00;;;;;25.78;38.96;100720.91;6248958;22;44806;-82
2023/10/11 17:54:12;;;;;;;;;10.00;10.00;;;;;25.34;39.37;100689.44;6129790;23;45385;-82
2023/10/11 17:56:40;;;;;;;;;10.00;9.33;;;;;25.39;39.78;100693.78;6156480;23;45444;-83
2023/10/11 17:59:08;;;;;;;;;7.33;7.33;;;;;25.20;39.65;100685.59;6128569;23;45319;-83
2023/10/11 18:01:41;;;;;;;;;6.67;6.00;;;;;25.19;39.61;100684.72;6131260;23;45444;-83
2023/10/11 18:04:16;;;;;;;;;12.00;9.33;;;;;25.46;39.64;100734.25;6132831;23;45404;-83
2023/10/11 18:06:49;;;;;;;;;6.00;6.00;;;;;25.56;39.83;100731.97;6157445;23;46701;-83
2023/10/11 18:09:16;;;;;;;;;9.00;9.00;;;;;25.20;39.71;100699.22;6135368;23;45436;-83
2023/10/11 18:11:43;;;;;;;;;5.00;5.00;;;;;25.39;39.93;100731.91;6160651;22;44821;-83
2023/10/11 18:14:08;;;;;;;;;6.00;4.67;;;;;25.20;39.79;100713.69;6158964;22;45384;-83
2023/10/11 18:16:34;;;;;;;;;5.67;5.00;;;;;25.36;39.83;100738.38;6109236;23;47811;-83
2023/10/11 18:19:01;;;;;;;;;7.00;6.33;;;;;25.19;39.83;100716.47;6158131;22;45691;-83
2023/10/11 18:21:26;;;;;;;;;5.67;5.33;;;;;25.18;39.73;100720.19;6158686;22;45325;-83
2023/10/11 18:23:52;;;;;;;;;7.00;7.00;;;;;25.32;40.16;100742.22;6156460;22;45337;-82
2023/10/11 18:26:21;;;;;;;;;9.00;7.00;;;;;25.21;40.29;100726.41;6249635;22;45387;-83
2023/10/11 18:28:47;;;;;;;;;6.67;4.67;;;;;25.22;40.01;100725.44;6221672;22;45333;-83
2023/10/11 18:31:13;;;;;;;;;6.67;5.67;;;;;25.28;39.67;100733.31;6249682;22;45313;-82
2023/10/11 18:33:39;;;;;;;;;6.67;4.33;;;;;25.34;40.09;100743.03;6249207;22;45347;-82
2023/10/11 18:36:06;;;;;;;;;6.00;6.00;;;;;25.31;40.24;100735.91;6222170;22;47189;-82
2023/10/11 18:38:36;;;;;;;;;8.33;6.00;;;;;25.35;40.07;100729.34;6222946;22;44848;-83
2023/10/11 18:41:07;;;;;;;;;6.33;6.00;;;;;25.43;39.90;100736.25;6251075;22;45375;-82
2023/10/11 18:43:33;;;;;;;;;10.00;6.67;;;;;25.23;40.42;100739.91;6223257;22;45376;-82
2023/10/11 18:46:03;;;;;;;;;10.33;8.33;;;;;25.15;40.17;100726.66;6223025;22;45502;-82
2023/10/11 18:48:29;;;;;;;;;8.33;6.33;;;;;25.13;40.68;100728.56;6223694;22;45442;-82
2023/10/11 18:50:54;;;;;;;;;10.00;7.67;;;;;25.10;40.44;100723.25;6252319;22;45340;-82
2023/10/11 18:53:20;;;;;;;;;8.00;6.33;;;;;25.04;40.50;100718.97;6254122;22;45391;-82
2023/10/11 18:55:46;;;;;;;;;8.00;7.00;;;;;25.03;40.50;100716.34;6225295;22;46620;-83
2023/10/11 18:58:11;;;;;;;;;9.00;9.00;;;;;25.02;40.68;100720.00;6253545;22;45355;-82
2023/10/11 19:00:37;;;;;;;;;10.33;6.00;;;;;25.01;40.97;100718.25;6252039;22;45240;-82
2023/10/11 19:03:07;;;;;;;;;11.33;9.67;;;;;24.94;40.99;100717.63;6226382;22;45383;-82
2023/10/11 19:05:32;;;;;;;;;10.00;6.67;;;;;24.94;40.56;100718.53;6226078;22;47213;-82
2023/10/11 19:07:58;;;;;;;;;13.67;11.33;;;;;24.91;41.22;100724.09;6253028;22;44840;-82
2023/10/11 19:10:30;;;;;;;;;7.00;7.00;;;;;25.05;41.26;100722.59;6224942;22;45451;-83
2023/10/11 19:12:57;;;;;;;;;8.00;8.00;;;;;24.83;41.54;100715.41;6251670;22;45343;-82